sensor_id;sensor_type;location;lat;lon;timestamp;P1;durP1;ratioP1;P2;durP2;ratioP2
8319;SDS011;4197;42.130;24.746;2023-07-29T00:01:46;4.93;;;3.15;;
8319;SDS011;4197;42.130;24.746;2023-07-29T00:04:16;4.15;;;2.97;;
8319;SDS011;4197;42.130;24.746;2023-07-29T00:06:47;4.18;;;3.20;;
8319;SDS011;4197;42.130;24.746;2023-07-29T00:09:15;4.68;;;3.30;;
8319;SDS011;4197;42.130;24.746;2023-07-29T00:11:47;5.43;;;3.22;;
8319;SDS011;4197;42.130;24.746;2023-07-29T00:14:15;5.90;;;3.65;;
8319;SDS011;4197;42.130;24.746;2023-07-29T00:16:44;5.32;;;3.53;;
8319;SDS011;4197;42.130;24.746;2023-07-29T00:19:12;6.28;;;3.20;;
8319;SDS011;4197;42.130;24.746;2023-07-29T00:21:40;5.38;;;3.08;;
8319;SDS011;4197;42.130;24.746;2023-07-29T00:24:08;7.65;;;2.78;;
8319;SDS011;4197;42.130;24.746;2023-07-29T00:26:37;5.82;;;3.30;;
8319;SDS011;4197;42.130;24.746;2023-07-29T00:29:06;5.95;;;2.90;;
8319;SDS011;4197;42.130;24.746;2023-07-29T00:31:34;5.70;;;3.08;;
8319;SDS011;4197;42.130;24.746;2023-07-29T00:34:03;5.72;;;3.17;;
8319;SDS011;4197;42.130;24.746;2023-07-29T00:36:31;4.78;;;3.03;;
8319;SDS011;4197;42.130;24.746;2023-07-29T00:38:59;6.15;;;3.00;;
8319;SDS011;4197;42.130;24.746;2023-07-29T00:41:28;5.07;;;3.08;;
8319;SDS011;4197;42.130;24.746;2023-07-29T00:43:57;4.40;;;2.83;;
8319;SDS011;4197;42.130;24.746;2023-07-29T00:46:26;5.72;;;2.92;;
8319;SDS011;4197;42.130;24.746;2023-07-29T00:48:56;5.35;;;3.28;;
8319;SDS011;4197;42.130;24.746;2023-07-29T00:51:24;6.03;;;3.08;;
8319;SDS011;4197;42.130;24.746;2023-07-29T00:53:53;4.70;;;3.13;;
8319;SDS011;4197;42.130;24.746;2023-07-29T00:56:22;4.20;;;3.40;;
8319;SDS011;4197;42.130;24.746;2023-07-29T00:58:50;3.47;;;2.80;;
8319;SDS011;4197;42.130;24.746;2023-07-29T01:01:27;8.50;;;3.47;;
8319;SDS011;4197;42.130;24.746;2023-07-29T01:03:55;4.40;;;2.80;;
8319;SDS011;4197;42.130;24.746;2023-07-29T01:06:27;6.57;;;3.13;;
8319;SDS011;4197;42.130;24.746;2023-07-29T01:09:02;5.00;;;2.65;;
8319;SDS011;4197;42.130;24.746;2023-07-29T01:11:41;7.57;;;3.55;;
8319;SDS011;4197;42.130;24.746;2023-07-29T01:14:18;4.57;;;2.85;;
8319;SDS011;4197;42.130;24.746;2023-07-29T01:16:55;4.43;;;3.10;;
8319;SDS011;4197;42.130;24.746;2023-07-29T01:19:36;5.95;;;3.22;;
8319;SDS011;4197;42.130;24.746;2023-07-29T01:22:11;6.18;;;2.92;;
8319;SDS011;4197;42.130;24.746;2023-07-29T01:24:42;6.50;;;3.22;;
8319;SDS011;4197;42.130;24.746;2023-07-29T01:27:10;10.07;;;3.20;;
8319;SDS011;4197;42.130;24.746;2023-07-29T01:29:38;7.63;;;3.25;;
8319;SDS011;4197;42.130;24.746;2023-07-29T01:32:07;4.65;;;3.03;;
8319;SDS011;4197;42.130;24.746;2023-07-29T01:34:39;6.72;;;3.85;;
8319;SDS011;4197;42.130;24.746;2023-07-29T01:37:14;5.07;;;3.40;;
8319;SDS011;4197;42.130;24.746;2023-07-29T01:39:51;5.45;;;3.60;;
8319;SDS011;4197;42.130;24.746;2023-07-29T01:42:24;4.72;;;3.63;;
8319;SDS011;4197;42.130;24.746;2023-07-29T01:44:56;5.82;;;4.03;;
8319;SDS011;4197;42.130;24.746;2023-07-29T01:47:24;8.88;;;4.47;;
8319;SDS011;4197;42.130;24.746;2023-07-29T01:49:52;8.35;;;4.57;;
8319;SDS011;4197;42.130;24.746;2023-07-29T01:52:20;5.35;;;4.45;;
8319;SDS011;4197;42.130;24.746;2023-07-29T01:54:49;6.20;;;4.57;;
8319;SDS011;4197;42.130;24.746;2023-07-29T01:57:19;7.72;;;5.05;;
8319;SDS011;4197;42.130;24.746;2023-07-29T01:59:47;9.32;;;5.03;;
8319;SDS011;4197;42.130;24.746;2023-07-29T02:02:15;9.90;;;5.00;;
8319;SDS011;4197;42.130;24.746;2023-07-29T02:04:43;9.18;;;5.05;;
8319;SDS011;4197;42.130;24.746;2023-07-29T02:07:18;7.40;;;5.18;;
8319;SDS011;4197;42.130;24.746;2023-07-29T02:09:46;8.55;;;4.80;;
8319;SDS011;4197;42.130;24.746;2023-07-29T02:12:14;7.68;;;4.88;;
8319;SDS011;4197;42.130;24.746;2023-07-29T02:14:44;6.40;;;4.72;;
8319;SDS011;4197;42.130;24.746;2023-07-29T02:17:12;5.30;;;4.72;;
8319;SDS011;4197;42.130;24.746;2023-07-29T02:19:40;17.98;;;5.40;;
8319;SDS011;4197;42.130;24.746;2023-07-29T02:22:12;8.48;;;4.68;;
8319;SDS011;4197;42.130;24.746;2023-07-29T02:24:42;10.25;;;4.97;;
8319;SDS011;4197;42.130;24.746;2023-07-29T02:27:10;8.43;;;4.90;;
8319;SDS011;4197;42.130;24.746;2023-07-29T02:29:38;7.03;;;5.10;;
8319;SDS011;4197;42.130;24.746;2023-07-29T02:32:08;8.55;;;4.95;;
8319;SDS011;4197;42.130;24.746;2023-07-29T02:34:38;8.65;;;4.90;;
8319;SDS011;4197;42.130;24.746;2023-07-29T02:37:07;11.30;;;5.15;;
8319;SDS011;4197;42.130;24.746;2023-07-29T02:39:35;8.80;;;5.10;;
8319;SDS011;4197;42.130;24.746;2023-07-29T02:42:03;6.25;;;5.03;;
8319;SDS011;4197;42.130;24.746;2023-07-29T02:44:32;5.25;;;4.75;;
8319;SDS011;4197;42.130;24.746;2023-07-29T02:47:00;6.13;;;4.78;;
8319;SDS011;4197;42.130;24.746;2023-07-29T02:49:33;7.75;;;4.70;;
8319;SDS011;4197;42.130;24.746;2023-07-29T02:52:01;8.25;;;4.75;;
8319;SDS011;4197;42.130;24.746;2023-07-29T02:54:32;9.23;;;5.18;;
8319;SDS011;4197;42.130;24.746;2023-07-29T02:57:00;9.57;;;5.55;;
8319;SDS011;4197;42.130;24.746;2023-07-29T02:59:31;8.07;;;5.25;;
8319;SDS011;4197;42.130;24.746;2023-07-29T03:01:59;7.63;;;5.55;;
8319;SDS011;4197;42.130;24.746;2023-07-29T03:04:27;7.82;;;5.38;;
8319;SDS011;4197;42.130;24.746;2023-07-29T03:07:00;6.07;;;4.82;;
8319;SDS011;4197;42.130;24.746;2023-07-29T03:09:29;7.38;;;5.68;;
8319;SDS011;4197;42.130;24.746;2023-07-29T03:11:57;6.22;;;4.85;;
8319;SDS011;4197;42.130;24.746;2023-07-29T03:14:26;7.45;;;4.90;;
8319;SDS011;4197;42.130;24.746;2023-07-29T03:16:54;7.05;;;5.30;;
8319;SDS011;4197;42.130;24.746;2023-07-29T03:19:22;8.40;;;5.03;;
8319;SDS011;4197;42.130;24.746;2023-07-29T03:21:50;9.43;;;4.95;;
8319;SDS011;4197;42.130;24.746;2023-07-29T03:24:20;7.65;;;4.90;;
8319;SDS011;4197;42.130;24.746;2023-07-29T03:26:48;11.25;;;5.30;;
8319;SDS011;4197;42.130;24.746;2023-07-29T03:29:16;7.15;;;5.32;;
8319;SDS011;4197;42.130;24.746;2023-07-29T03:31:44;8.43;;;4.45;;
8319;SDS011;4197;42.130;24.746;2023-07-29T03:34:13;5.63;;;4.50;;
8319;SDS011;4197;42.130;24.746;2023-07-29T03:36:41;8.23;;;4.40;;
8319;SDS011;4197;42.130;24.746;2023-07-29T03:39:09;4.90;;;4.22;;
8319;SDS011;4197;42.130;24.746;2023-07-29T03:41:38;7.10;;;4.40;;
8319;SDS011;4197;42.130;24.746;2023-07-29T03:44:07;6.20;;;4.25;;
8319;SDS011;4197;42.130;24.746;2023-07-29T03:46:35;5.85;;;4.90;;
8319;SDS011;4197;42.130;24.746;2023-07-29T03:49:04;7.63;;;4.72;;
8319;SDS011;4197;42.130;24.746;2023-07-29T03:51:32;5.75;;;4.35;;
8319;SDS011;4197;42.130;24.746;2023-07-29T03:54:01;6.45;;;4.45;;
8319;SDS011;4197;42.130;24.746;2023-07-29T03:56:30;7.93;;;4.25;;
8319;SDS011;4197;42.130;24.746;2023-07-29T03:59:03;6.97;;;4.82;;
8319;SDS011;4197;42.130;24.746;2023-07-29T04:01:32;5.82;;;4.20;;
8319;SDS011;4197;42.130;24.746;2023-07-29T04:04:00;5.38;;;3.70;;
8319;SDS011;4197;42.130;24.746;2023-07-29T04:06:28;4.05;;;3.50;;
8319;SDS011;4197;42.130;24.746;2023-07-29T04:08:56;7.13;;;4.55;;
8319;SDS011;4197;42.130;24.746;2023-07-29T04:11:25;7.95;;;4.68;;
8319;SDS011;4197;42.130;24.746;2023-07-29T04:13:53;5.35;;;4.03;;
8319;SDS011;4197;42.130;24.746;2023-07-29T04:16:23;9.40;;;4.15;;
8319;SDS011;4197;42.130;24.746;2023-07-29T04:18:51;4.93;;;3.90;;
8319;SDS011;4197;42.130;24.746;2023-07-29T04:21:19;6.65;;;3.53;;
8319;SDS011;4197;42.130;24.746;2023-07-29T04:23:47;5.75;;;3.90;;
8319;SDS011;4197;42.130;24.746;2023-07-29T04:26:16;7.25;;;4.05;;
8319;SDS011;4197;42.130;24.746;2023-07-29T04:28:44;4.32;;;3.90;;
8319;SDS011;4197;42.130;24.746;2023-07-29T04:31:12;6.63;;;4.18;;
8319;SDS011;4197;42.130;24.746;2023-07-29T04:33:42;5.35;;;4.13;;
8319;SDS011;4197;42.130;24.746;2023-07-29T04:36:10;6.13;;;4.25;;
8319;SDS011;4197;42.130;24.746;2023-07-29T04:38:38;7.85;;;4.22;;
8319;SDS011;4197;42.130;24.746;2023-07-29T04:41:07;6.18;;;3.83;;
8319;SDS011;4197;42.130;24.746;2023-07-29T04:43:35;8.00;;;4.07;;
8319;SDS011;4197;42.130;24.746;2023-07-29T04:46:06;8.05;;;4.25;;
8319;SDS011;4197;42.130;24.746;2023-07-29T04:48:35;5.35;;;3.92;;
8319;SDS011;4197;42.130;24.746;2023-07-29T04:51:04;8.38;;;4.47;;
8319;SDS011;4197;42.130;24.746;2023-07-29T04:53:33;10.02;;;4.65;;
8319;SDS011;4197;42.130;24.746;2023-07-29T04:56:01;10.98;;;5.47;;
8319;SDS011;4197;42.130;24.746;2023-07-29T04:58:29;22.65;;;17.85;;
8319;SDS011;4197;42.130;24.746;2023-07-29T05:01:01;9.18;;;5.20;;
8319;SDS011;4197;42.130;24.746;2023-07-29T05:03:29;7.40;;;5.72;;
8319;SDS011;4197;42.130;24.746;2023-07-29T05:05:58;9.40;;;5.75;;
8319;SDS011;4197;42.130;24.746;2023-07-29T05:08:28;6.45;;;4.85;;
8319;SDS011;4197;42.130;24.746;2023-07-29T05:10:57;10.90;;;5.15;;
8319;SDS011;4197;42.130;24.746;2023-07-29T05:13:25;4.80;;;4.15;;
8319;SDS011;4197;42.130;24.746;2023-07-29T05:15:53;7.60;;;4.93;;
8319;SDS011;4197;42.130;24.746;2023-07-29T05:18:22;13.27;;;4.70;;
8319;SDS011;4197;42.130;24.746;2023-07-29T05:20:51;7.50;;;4.47;;
8319;SDS011;4197;42.130;24.746;2023-07-29T05:23:19;6.82;;;4.47;;
8319;SDS011;4197;42.130;24.746;2023-07-29T05:25:48;7.68;;;4.38;;
8319;SDS011;4197;42.130;24.746;2023-07-29T05:28:16;8.60;;;4.53;;
8319;SDS011;4197;42.130;24.746;2023-07-29T05:30:45;10.02;;;4.40;;
8319;SDS011;4197;42.130;24.746;2023-07-29T05:33:13;7.13;;;4.38;;
8319;SDS011;4197;42.130;24.746;2023-07-29T05:35:40;7.30;;;4.28;;
8319;SDS011;4197;42.130;24.746;2023-07-29T05:38:08;14.15;;;4.90;;
8319;SDS011;4197;42.130;24.746;2023-07-29T05:40:36;8.75;;;3.90;;
8319;SDS011;4197;42.130;24.746;2023-07-29T05:43:06;6.13;;;3.75;;
8319;SDS011;4197;42.130;24.746;2023-07-29T05:45:34;12.65;;;6.70;;
8319;SDS011;4197;42.130;24.746;2023-07-29T05:48:02;12.68;;;5.35;;
8319;SDS011;4197;42.130;24.746;2023-07-29T05:50:31;5.38;;;3.83;;
8319;SDS011;4197;42.130;24.746;2023-07-29T05:52:59;7.15;;;4.78;;
8319;SDS011;4197;42.130;24.746;2023-07-29T05:55:28;6.18;;;4.32;;
8319;SDS011;4197;42.130;24.746;2023-07-29T05:57:56;10.05;;;4.43;;
8319;SDS011;4197;42.130;24.746;2023-07-29T06:00:26;9.93;;;3.53;;
8319;SDS011;4197;42.130;24.746;2023-07-29T06:02:54;10.68;;;4.30;;
8319;SDS011;4197;42.130;24.746;2023-07-29T06:05:22;12.15;;;4.57;;
8319;SDS011;4197;42.130;24.746;2023-07-29T06:07:51;6.30;;;3.92;;
8319;SDS011;4197;42.130;24.746;2023-07-29T06:10:19;8.25;;;3.95;;
8319;SDS011;4197;42.130;24.746;2023-07-29T06:12:48;3.80;;;2.90;;
8319;SDS011;4197;42.130;24.746;2023-07-29T06:15:17;6.38;;;3.40;;
8319;SDS011;4197;42.130;24.746;2023-07-29T06:17:49;9.32;;;3.85;;
8319;SDS011;4197;42.130;24.746;2023-07-29T06:20:22;8.50;;;4.10;;
8319;SDS011;4197;42.130;24.746;2023-07-29T06:22:50;7.30;;;3.92;;
8319;SDS011;4197;42.130;24.746;2023-07-29T06:25:18;10.35;;;3.50;;
8319;SDS011;4197;42.130;24.746;2023-07-29T06:27:47;6.72;;;3.55;;
8319;SDS011;4197;42.130;24.746;2023-07-29T06:30:15;6.50;;;3.08;;
8319;SDS011;4197;42.130;24.746;2023-07-29T06:32:44;4.65;;;3.72;;
8319;SDS011;4197;42.130;24.746;2023-07-29T06:35:13;7.82;;;3.67;;
8319;SDS011;4197;42.130;24.746;2023-07-29T06:37:42;21.25;;;4.35;;
8319;SDS011;4197;42.130;24.746;2023-07-29T06:40:10;6.20;;;3.38;;
8319;SDS011;4197;42.130;24.746;2023-07-29T06:42:39;6.88;;;3.45;;
8319;SDS011;4197;42.130;24.746;2023-07-29T06:45:07;6.40;;;3.75;;
8319;SDS011;4197;42.130;24.746;2023-07-29T06:47:36;6.43;;;3.55;;
8319;SDS011;4197;42.130;24.746;2023-07-29T06:50:05;6.15;;;3.28;;
8319;SDS011;4197;42.130;24.746;2023-07-29T06:52:35;6.50;;;3.17;;
8319;SDS011;4197;42.130;24.746;2023-07-29T06:55:04;7.22;;;2.83;;
8319;SDS011;4197;42.130;24.746;2023-07-29T06:57:33;5.90;;;3.33;;
8319;SDS011;4197;42.130;24.746;2023-07-29T07:00:02;4.45;;;2.88;;
8319;SDS011;4197;42.130;24.746;2023-07-29T07:02:31;5.85;;;3.17;;
8319;SDS011;4197;42.130;24.746;2023-07-29T07:04:59;4.07;;;3.20;;
8319;SDS011;4197;42.130;24.746;2023-07-29T07:07:27;5.60;;;3.30;;
8319;SDS011;4197;42.130;24.746;2023-07-29T07:09:57;5.07;;;3.08;;
8319;SDS011;4197;42.130;24.746;2023-07-29T07:12:27;10.40;;;4.38;;
8319;SDS011;4197;42.130;24.746;2023-07-29T07:14:55;9.05;;;3.28;;
8319;SDS011;4197;42.130;24.746;2023-07-29T07:17:23;6.38;;;2.97;;
8319;SDS011;4197;42.130;24.746;2023-07-29T07:19:51;8.45;;;3.75;;
8319;SDS011;4197;42.130;24.746;2023-07-29T07:22:20;7.40;;;3.65;;
8319;SDS011;4197;42.130;24.746;2023-07-29T07:24:48;6.63;;;3.17;;
8319;SDS011;4197;42.130;24.746;2023-07-29T07:27:17;5.47;;;3.40;;
8319;SDS011;4197;42.130;24.746;2023-07-29T07:29:46;6.38;;;3.25;;
8319;SDS011;4197;42.130;24.746;2023-07-29T07:32:14;9.30;;;3.30;;
8319;SDS011;4197;42.130;24.746;2023-07-29T07:34:42;4.45;;;3.10;;
8319;SDS011;4197;42.130;24.746;2023-07-29T07:37:10;7.68;;;3.10;;
8319;SDS011;4197;42.130;24.746;2023-07-29T07:39:38;6.18;;;3.13;;
8319;SDS011;4197;42.130;24.746;2023-07-29T07:42:07;6.05;;;3.50;;
8319;SDS011;4197;42.130;24.746;2023-07-29T07:44:36;7.80;;;3.17;;
8319;SDS011;4197;42.130;24.746;2023-07-29T07:47:05;5.40;;;3.65;;
8319;SDS011;4197;42.130;24.746;2023-07-29T07:49:33;9.85;;;3.78;;
8319;SDS011;4197;42.130;24.746;2023-07-29T07:52:01;6.32;;;3.70;;
8319;SDS011;4197;42.130;24.746;2023-07-29T07:54:30;5.50;;;3.85;;
8319;SDS011;4197;42.130;24.746;2023-07-29T07:56:58;8.68;;;3.95;;
8319;SDS011;4197;42.130;24.746;2023-07-29T07:59:27;9.07;;;3.60;;
8319;SDS011;4197;42.130;24.746;2023-07-29T08:01:56;5.25;;;3.15;;
8319;SDS011;4197;42.130;24.746;2023-07-29T08:04:25;7.78;;;3.40;;
8319;SDS011;4197;42.130;24.746;2023-07-29T08:06:53;11.73;;;3.70;;
8319;SDS011;4197;42.130;24.746;2023-07-29T08:09:21;5.25;;;3.33;;
8319;SDS011;4197;42.130;24.746;2023-07-29T08:11:49;5.05;;;3.20;;
8319;SDS011;4197;42.130;24.746;2023-07-29T08:14:17;6.20;;;3.80;;
8319;SDS011;4197;42.130;24.746;2023-07-29T08:16:45;5.60;;;3.28;;
8319;SDS011;4197;42.130;24.746;2023-07-29T08:19:15;5.97;;;2.83;;
8319;SDS011;4197;42.130;24.746;2023-07-29T08:21:46;6.05;;;3.42;;
8319;SDS011;4197;42.130;24.746;2023-07-29T08:24:14;10.70;;;4.07;;
8319;SDS011;4197;42.130;24.746;2023-07-29T08:26:42;5.47;;;3.80;;
8319;SDS011;4197;42.130;24.746;2023-07-29T08:29:11;8.45;;;3.92;;
8319;SDS011;4197;42.130;24.746;2023-07-29T08:31:39;4.88;;;3.42;;
8319;SDS011;4197;42.130;24.746;2023-07-29T08:34:07;16.98;;;4.88;;
8319;SDS011;4197;42.130;24.746;2023-07-29T08:36:37;9.98;;;3.97;;
8319;SDS011;4197;42.130;24.746;2023-07-29T08:39:05;4.03;;;3.35;;
8319;SDS011;4197;42.130;24.746;2023-07-29T08:41:37;5.10;;;3.30;;
8319;SDS011;4197;42.130;24.746;2023-07-29T08:44:09;8.38;;;3.50;;
8319;SDS011;4197;42.130;24.746;2023-07-29T08:46:39;5.85;;;3.42;;
8319;SDS011;4197;42.130;24.746;2023-07-29T08:49:08;4.78;;;3.08;;
8319;SDS011;4197;42.130;24.746;2023-07-29T08:51:42;7.22;;;3.30;;
8319;SDS011;4197;42.130;24.746;2023-07-29T08:54:12;8.63;;;3.90;;
8319;SDS011;4197;42.130;24.746;2023-07-29T08:56:41;6.68;;;3.22;;
8319;SDS011;4197;42.130;24.746;2023-07-29T08:59:10;11.05;;;3.85;;
8319;SDS011;4197;42.130;24.746;2023-07-29T09:01:38;6.25;;;3.92;;
8319;SDS011;4197;42.130;24.746;2023-07-29T09:04:07;6.25;;;3.30;;
8319;SDS011;4197;42.130;24.746;2023-07-29T09:06:35;7.07;;;3.78;;
8319;SDS011;4197;42.130;24.746;2023-07-29T09:09:08;5.38;;;3.10;;
8319;SDS011;4197;42.130;24.746;2023-07-29T09:11:36;4.50;;;3.92;;
8319;SDS011;4197;42.130;24.746;2023-07-29T09:14:04;3.92;;;3.33;;
8319;SDS011;4197;42.130;24.746;2023-07-29T09:16:33;4.68;;;3.50;;
8319;SDS011;4197;42.130;24.746;2023-07-29T09:19:02;5.75;;;3.88;;
8319;SDS011;4197;42.130;24.746;2023-07-29T09:21:31;4.88;;;3.47;;
8319;SDS011;4197;42.130;24.746;2023-07-29T09:24:02;5.40;;;3.40;;
8319;SDS011;4197;42.130;24.746;2023-07-29T09:26:32;6.78;;;3.33;;
8319;SDS011;4197;42.130;24.746;2023-07-29T09:29:01;10.48;;;5.95;;
8319;SDS011;4197;42.130;24.746;2023-07-29T09:31:30;4.88;;;3.70;;
8319;SDS011;4197;42.130;24.746;2023-07-29T09:33:58;4.68;;;3.58;;
8319;SDS011;4197;42.130;24.746;2023-07-29T09:36:30;7.05;;;3.67;;
8319;SDS011;4197;42.130;24.746;2023-07-29T09:39:00;6.63;;;3.42;;
8319;SDS011;4197;42.130;24.746;2023-07-29T09:41:30;5.88;;;3.08;;
8319;SDS011;4197;42.130;24.746;2023-07-29T09:44:00;4.50;;;3.22;;
8319;SDS011;4197;42.130;24.746;2023-07-29T09:46:32;4.60;;;2.97;;
8319;SDS011;4197;42.130;24.746;2023-07-29T09:49:02;5.20;;;2.80;;
8319;SDS011;4197;42.130;24.746;2023-07-29T09:51:31;3.70;;;3.08;;
8319;SDS011;4197;42.130;24.746;2023-07-29T09:54:04;4.47;;;3.13;;
8319;SDS011;4197;42.130;24.746;2023-07-29T09:56:33;5.80;;;3.08;;
8319;SDS011;4197;42.130;24.746;2023-07-29T09:59:08;3.95;;;2.90;;
8319;SDS011;4197;42.130;24.746;2023-07-29T10:01:38;4.10;;;2.65;;
8319;SDS011;4197;42.130;24.746;2023-07-29T10:04:07;6.60;;;2.97;;
8319;SDS011;4197;42.130;24.746;2023-07-29T10:06:39;13.35;;;3.00;;
8319;SDS011;4197;42.130;24.746;2023-07-29T10:09:09;5.78;;;2.70;;
8319;SDS011;4197;42.130;24.746;2023-07-29T10:11:39;4.38;;;2.45;;
8319;SDS011;4197;42.130;24.746;2023-07-29T10:14:09;4.47;;;2.40;;
8319;SDS011;4197;42.130;24.746;2023-07-29T10:16:39;9.75;;;2.72;;
8319;SDS011;4197;42.130;24.746;2023-07-29T10:19:09;7.95;;;3.00;;
8319;SDS011;4197;42.130;24.746;2023-07-29T10:21:39;4.72;;;2.92;;
8319;SDS011;4197;42.130;24.746;2023-07-29T10:24:14;5.40;;;3.00;;
8319;SDS011;4197;42.130;24.746;2023-07-29T10:26:46;8.25;;;2.67;;
8319;SDS011;4197;42.130;24.746;2023-07-29T10:29:19;3.45;;;2.50;;
8319;SDS011;4197;42.130;24.746;2023-07-29T10:31:48;3.92;;;2.53;;
8319;SDS011;4197;42.130;24.746;2023-07-29T10:34:20;2.90;;;2.55;;
8319;SDS011;4197;42.130;24.746;2023-07-29T10:36:49;3.53;;;2.13;;
8319;SDS011;4197;42.130;24.746;2023-07-29T10:39:18;3.47;;;2.45;;
8319;SDS011;4197;42.130;24.746;2023-07-29T10:41:56;3.65;;;2.25;;
8319;SDS011;4197;42.130;24.746;2023-07-29T10:47:19;5.03;;;2.75;;
8319;SDS011;4197;42.130;24.746;2023-07-29T10:49:49;3.10;;;2.22;;
8319;SDS011;4197;42.130;24.746;2023-07-29T10:52:31;2.78;;;2.35;;
8319;SDS011;4197;42.130;24.746;2023-07-29T10:55:23;2.50;;;2.15;;
8319;SDS011;4197;42.130;24.746;2023-07-29T10:58:04;3.00;;;2.53;;
8319;SDS011;4197;42.130;24.746;2023-07-29T11:00:39;7.07;;;2.90;;
8319;SDS011;4197;42.130;24.746;2023-07-29T11:03:09;4.40;;;2.72;;
8319;SDS011;4197;42.130;24.746;2023-07-29T11:05:42;4.00;;;2.42;;
8319;SDS011;4197;42.130;24.746;2023-07-29T11:08:18;4.07;;;2.95;;
8319;SDS011;4197;42.130;24.746;2023-07-29T11:10:58;5.72;;;2.35;;
8319;SDS011;4197;42.130;24.746;2023-07-29T11:13:39;4.53;;;2.63;;
8319;SDS011;4197;42.130;24.746;2023-07-29T11:16:09;7.60;;;2.90;;
8319;SDS011;4197;42.130;24.746;2023-07-29T11:18:38;7.03;;;2.80;;
8319;SDS011;4197;42.130;24.746;2023-07-29T11:21:08;7.68;;;4.15;;
8319;SDS011;4197;42.130;24.746;2023-07-29T11:23:36;7.47;;;2.50;;
8319;SDS011;4197;42.130;24.746;2023-07-29T11:26:05;6.38;;;3.10;;
8319;SDS011;4197;42.130;24.746;2023-07-29T11:28:37;24.08;;;4.03;;
8319;SDS011;4197;42.130;24.746;2023-07-29T11:31:06;8.63;;;3.00;;
8319;SDS011;4197;42.130;24.746;2023-07-29T11:33:38;6.20;;;2.78;;
8319;SDS011;4197;42.130;24.746;2023-07-29T11:36:16;4.90;;;2.30;;
8319;SDS011;4197;42.130;24.746;2023-07-29T11:38:46;3.58;;;2.28;;
8319;SDS011;4197;42.130;24.746;2023-07-29T11:41:18;3.97;;;2.30;;
8319;SDS011;4197;42.130;24.746;2023-07-29T11:43:48;10.90;;;3.10;;
8319;SDS011;4197;42.130;24.746;2023-07-29T11:46:20;5.82;;;2.97;;
8319;SDS011;4197;42.130;24.746;2023-07-29T11:48:51;6.05;;;2.60;;
8319;SDS011;4197;42.130;24.746;2023-07-29T11:51:21;4.13;;;2.50;;
8319;SDS011;4197;42.130;24.746;2023-07-29T11:53:51;3.78;;;2.53;;
8319;SDS011;4197;42.130;24.746;2023-07-29T11:56:19;7.93;;;2.60;;
8319;SDS011;4197;42.130;24.746;2023-07-29T11:58:47;5.60;;;2.55;;
8319;SDS011;4197;42.130;24.746;2023-07-29T12:01:16;12.43;;;3.08;;
8319;SDS011;4197;42.130;24.746;2023-07-29T12:03:45;13.27;;;2.70;;
8319;SDS011;4197;42.130;24.746;2023-07-29T12:06:15;27.17;;;5.22;;
8319;SDS011;4197;42.130;24.746;2023-07-29T12:08:44;11.65;;;2.75;;
8319;SDS011;4197;42.130;24.746;2023-07-29T12:11:12;7.55;;;2.47;;
8319;SDS011;4197;42.130;24.746;2023-07-29T12:13:41;13.52;;;2.97;;
8319;SDS011;4197;42.130;24.746;2023-07-29T12:16:10;40.33;;;4.78;;
8319;SDS011;4197;42.130;24.746;2023-07-29T12:18:44;21.70;;;3.78;;
8319;SDS011;4197;42.130;24.746;2023-07-29T12:21:15;6.40;;;2.30;;
8319;SDS011;4197;42.130;24.746;2023-07-29T12:23:43;5.82;;;2.17;;
8319;SDS011;4197;42.130;24.746;2023-07-29T12:26:11;8.07;;;2.15;;
8319;SDS011;4197;42.130;24.746;2023-07-29T12:28:44;3.05;;;1.95;;
8319;SDS011;4197;42.130;24.746;2023-07-29T12:31:13;9.35;;;1.95;;
8319;SDS011;4197;42.130;24.746;2023-07-29T12:33:42;8.70;;;2.13;;
8319;SDS011;4197;42.130;24.746;2023-07-29T12:36:10;5.43;;;1.83;;
8319;SDS011;4197;42.130;24.746;2023-07-29T12:38:40;14.48;;;2.03;;
8319;SDS011;4197;42.130;24.746;2023-07-29T12:41:10;5.80;;;1.88;;
8319;SDS011;4197;42.130;24.746;2023-07-29T12:43:38;16.60;;;2.70;;
8319;SDS011;4197;42.130;24.746;2023-07-29T12:46:07;3.40;;;1.30;;
8319;SDS011;4197;42.130;24.746;2023-07-29T12:48:35;3.45;;;1.33;;
8319;SDS011;4197;42.130;24.746;2023-07-29T12:51:03;3.55;;;1.40;;
8319;SDS011;4197;42.130;24.746;2023-07-29T12:53:31;13.43;;;2.22;;
8319;SDS011;4197;42.130;24.746;2023-07-29T12:56:02;4.88;;;1.60;;
8319;SDS011;4197;42.130;24.746;2023-07-29T12:58:31;3.25;;;1.50;;
8319;SDS011;4197;42.130;24.746;2023-07-29T13:00:59;13.70;;;2.13;;
8319;SDS011;4197;42.130;24.746;2023-07-29T13:03:27;18.30;;;2.38;;
8319;SDS011;4197;42.130;24.746;2023-07-29T13:05:56;4.05;;;1.23;;
8319;SDS011;4197;42.130;24.746;2023-07-29T13:08:24;11.63;;;2.15;;
8319;SDS011;4197;42.130;24.746;2023-07-29T13:10:52;1.35;;;0.70;;
8319;SDS011;4197;42.130;24.746;2023-07-29T13:13:22;4.95;;;1.05;;
8319;SDS011;4197;42.130;24.746;2023-07-29T13:15:50;2.67;;;0.60;;
8319;SDS011;4197;42.130;24.746;2023-07-29T13:18:19;6.35;;;1.63;;
8319;SDS011;4197;42.130;24.746;2023-07-29T13:20:48;1.98;;;0.63;;
8319;SDS011;4197;42.130;24.746;2023-07-29T13:23:16;3.22;;;0.90;;
8319;SDS011;4197;42.130;24.746;2023-07-29T13:25:45;4.47;;;1.50;;
8319;SDS011;4197;42.130;24.746;2023-07-29T13:28:13;6.97;;;1.15;;
8319;SDS011;4197;42.130;24.746;2023-07-29T13:30:43;3.22;;;0.80;;
8319;SDS011;4197;42.130;24.746;2023-07-29T13:33:11;1.05;;;0.55;;
8319;SDS011;4197;42.130;24.746;2023-07-29T13:35:39;12.95;;;1.63;;
8319;SDS011;4197;42.130;24.746;2023-07-29T13:38:07;3.67;;;0.90;;
8319;SDS011;4197;42.130;24.746;2023-07-29T13:40:36;1.20;;;0.90;;
8319;SDS011;4197;42.130;24.746;2023-07-29T13:43:04;3.88;;;1.00;;
8319;SDS011;4197;42.130;24.746;2023-07-29T13:45:33;2.15;;;0.90;;
8319;SDS011;4197;42.130;24.746;2023-07-29T13:48:03;3.40;;;1.15;;
8319;SDS011;4197;42.130;24.746;2023-07-29T13:50:32;4.72;;;1.10;;
8319;SDS011;4197;42.130;24.746;2023-07-29T13:53:00;3.08;;;1.10;;
8319;SDS011;4197;42.130;24.746;2023-07-29T13:55:28;3.03;;;1.00;;
8319;SDS011;4197;42.130;24.746;2023-07-29T13:57:57;4.40;;;1.17;;
8319;SDS011;4197;42.130;24.746;2023-07-29T14:00:25;3.35;;;1.17;;
8319;SDS011;4197;42.130;24.746;2023-07-29T14:02:54;1.40;;;0.80;;
8319;SDS011;4197;42.130;24.746;2023-07-29T14:05:24;4.70;;;1.95;;
8319;SDS011;4197;42.130;24.746;2023-07-29T14:07:52;2.15;;;1.10;;
8319;SDS011;4197;42.130;24.746;2023-07-29T14:10:20;14.70;;;1.20;;
8319;SDS011;4197;42.130;24.746;2023-07-29T14:12:48;1.50;;;1.10;;
8319;SDS011;4197;42.130;24.746;2023-07-29T14:15:17;4.65;;;1.70;;
8319;SDS011;4197;42.130;24.746;2023-07-29T14:17:45;5.43;;;1.23;;
8319;SDS011;4197;42.130;24.746;2023-07-29T14:20:14;1.33;;;0.93;;
8319;SDS011;4197;42.130;24.746;2023-07-29T14:22:44;2.13;;;1.10;;
8319;SDS011;4197;42.130;24.746;2023-07-29T14:25:12;3.05;;;1.10;;
8319;SDS011;4197;42.130;24.746;2023-07-29T14:27:41;2.88;;;1.10;;
8319;SDS011;4197;42.130;24.746;2023-07-29T14:30:10;2.35;;;1.00;;
8319;SDS011;4197;42.130;24.746;2023-07-29T14:32:38;3.55;;;1.00;;
8319;SDS011;4197;42.130;24.746;2023-07-29T14:35:07;5.40;;;1.10;;
8319;SDS011;4197;42.130;24.746;2023-07-29T14:37:35;1.55;;;1.00;;
8319;SDS011;4197;42.130;24.746;2023-07-29T14:40:06;1.75;;;0.70;;
8319;SDS011;4197;42.130;24.746;2023-07-29T14:42:35;3.63;;;1.17;;
8319;SDS011;4197;42.130;24.746;2023-07-29T14:45:03;3.75;;;1.23;;
8319;SDS011;4197;42.130;24.746;2023-07-29T14:47:32;4.18;;;1.55;;
8319;SDS011;4197;42.130;24.746;2023-07-29T14:50:01;3.83;;;1.05;;
8319;SDS011;4197;42.130;24.746;2023-07-29T14:52:30;5.10;;;1.02;;
8319;SDS011;4197;42.130;24.746;2023-07-29T14:54:58;11.60;;;1.55;;
8319;SDS011;4197;42.130;24.746;2023-07-29T14:57:28;5.47;;;1.23;;
8319;SDS011;4197;42.130;24.746;2023-07-29T14:59:56;4.55;;;1.27;;
8319;SDS011;4197;42.130;24.746;2023-07-29T15:02:24;3.70;;;1.20;;
8319;SDS011;4197;42.130;24.746;2023-07-29T15:04:53;4.90;;;1.17;;
8319;SDS011;4197;42.130;24.746;2023-07-29T15:07:21;1.30;;;1.10;;
8319;SDS011;4197;42.130;24.746;2023-07-29T15:09:49;1.08;;;0.93;;
8319;SDS011;4197;42.130;24.746;2023-07-29T15:12:17;1.52;;;1.20;;
8319;SDS011;4197;42.130;24.746;2023-07-29T15:14:47;12.32;;;2.28;;
8319;SDS011;4197;42.130;24.746;2023-07-29T15:17:15;4.00;;;1.02;;